Time;durP1;ratioP1;P1;durP2;ratioP2;P2;SDS_P1;SDS_P2;PMS_P1;PMS_P2;Temp;Humidity;BMP_temperature;BMP_pressure;BME280_temperature;BME280_humidity;BME280_pressure;Samples;Min_cycle;Max_cycle;Signal;HPM_P1;HPM_P2
2022/04/28 00:02:19;;;;;;;5.10;2.95;;;;;;;5.38;56.25;100003.91;5049362;28;20495;-39
2022/04/28 00:04:46;;;;;;;3.50;2.20;;;;;;;5.22;56.66;99984.28;5051032;28;20140;-39
2022/04/28 00:07:11;;;;;;;3.95;2.08;;;;;;;5.24;56.62;100002.28;5051023;28;20128;-38
2022/04/28 00:09:37;;;;;;;4.38;2.40;;;;;;;5.11;56.49;100006.69;5051193;28;20136;-38
2022/04/28 00:12:03;;;;;;;6.05;3.17;;;;;;;5.01;57.10;100013.66;5050735;28;20025;-39
2022/04/28 00:14:30;;;;;;;12.48;8.38;;;;;;;4.94;56.46;100017.09;5051302;28;20073;-39
2022/04/28 00:16:57;;;;;;;15.80;7.63;;;;;;;4.94;56.69;100021.41;5050969;28;20045;-38
2022/04/28 00:19:22;;;;;;;19.70;15.00;;;;;;;4.95;56.92;100016.25;5059417;28;20128;-38
2022/04/28 00:21:48;;;;;;;32.08;23.30;;;;;;;4.98;56.73;100015.38;5063487;28;20131;-38
2022/04/28 00:24:14;;;;;;;15.60;11.18;;;;;;;4.97;57.23;100021.41;5050847;28;20037;-38
2022/04/28 00:26:40;;;;;;;14.20;9.00;;;;;;;4.92;57.58;100026.56;5064812;28;20048;-38
2022/04/28 00:29:05;;;;;;;11.48;5.78;;;;;;;4.84;57.77;100024.91;5062882;28;20040;-38
2022/04/28 00:31:31;;;;;;;7.32;4.43;;;;;;;4.71;57.97;100034.41;5060824;28;20114;-38
2022/04/28 00:33:57;;;;;;;6.90;4.22;;;;;;;4.59;57.91;100027.63;5052039;28;20040;-37
2022/04/28 00:36:23;;;;;;;8.15;4.75;;;;;;;4.49;58.55;100040.53;5051773;28;20110;-37
2022/04/28 00:38:50;;;;;;;7.68;3.97;;;;;;;4.37;58.51;100043.16;5049809;28;20033;-38
2022/04/28 00:41:16;;;;;;;6.80;3.72;;;;;;;4.19;58.40;100034.63;5051462;28;20421;-37
2022/04/28 00:43:49;;;;;;;5.70;3.20;;;;;;;4.20;58.72;100045.78;5049031;28;20061;-37
2022/04/28 00:46:15;;;;;;;5.38;3.42;;;;;;;4.12;58.98;100045.81;5073339;28;20040;-37
2022/04/28 00:51:27;;;;;;;8.32;3.40;;;;;;;4.00;59.14;100044.97;5050482;28;20066;-38
2022/04/28 00:53:55;;;;;;;6.45;3.47;;;;;;;3.94;58.67;100053.56;5048563;28;20063;-36
2022/04/28 00:56:21;;;;;;;6.78;2.90;;;;;;;3.88;58.44;100058.69;5048672;28;20033;-38
2022/04/28 00:58:50;;;;;;;7.95;3.13;;;;;;;3.84;58.69;100067.28;5046111;28;20052;-39
2022/04/28 01:01:17;;;;;;;6.95;3.75;;;;;;;3.78;58.42;100064.72;5049688;28;20056;-37
2022/04/28 01:03:46;;;;;;;7.78;3.42;;;;;;;3.72;58.18;100057.00;5050471;28;20048;-38
2022/04/28 01:06:12;;;;;;;7.22;3.33;;;;;;;3.69;58.12;100065.59;5029399;28;20416;-38
2022/04/28 01:08:39;;;;;;;5.25;2.72;;;;;;;3.65;58.05;100065.59;5050148;28;20041;-38
2022/04/28 01:11:05;;;;;;;5.95;2.70;;;;;;;3.59;57.47;100068.16;5032324;28;20037;-47
2022/04/28 01:13:37;;;;;;;7.50;2.85;;;;;;;3.55;57.55;100066.47;5048668;28;20576;-38
2022/04/28 01:16:13;;;;;;;9.80;2.92;;;;;;;3.53;57.33;100068.16;5048253;28;20064;-39
2022/04/28 01:18:40;;;;;;;4.80;2.83;;;;;;;3.49;57.25;100071.59;5060825;28;20091;-38
2022/04/28 01:21:06;;;;;;;3.78;2.20;;;;;;;3.47;56.78;100076.72;5059209;28;20075;-38
2022/04/28 01:23:34;;;;;;;4.70;2.10;;;;;;;3.49;55.66;100079.31;5038798;28;20127;-38
2022/04/28 01:26:01;;;;;;;5.57;2.13;;;;;;;3.51;55.06;100086.13;5047871;28;20078;-39
2022/04/28 01:28:28;;;;;;;6.75;2.33;;;;;;;3.54;54.83;100087.88;5048016;28;20127;-38
2022/04/28 01:30:55;;;;;;;6.15;2.63;;;;;;;3.57;54.60;100091.28;5047728;28;20021;-38
2022/04/28 01:33:26;;;;;;;5.30;2.90;;;;;;;3.63;54.60;100095.56;5048439;28;20044;-43
2022/04/28 01:35:52;;;;;;;6.05;2.45;;;;;;;3.65;54.48;100086.16;5049522;28;20090;-38
2022/04/28 01:38:19;;;;;;;7.30;2.22;;;;;;;3.63;54.13;100085.28;5049410;28;20101;-38
2022/04/28 01:40:45;;;;;;;5.78;2.50;;;;;;;3.48;53.62;100075.00;5049314;28;20036;-38
2022/04/28 01:43:11;;;;;;;5.68;2.53;;;;;;;3.52;53.31;100093.00;5055391;28;20048;-38
2022/04/28 01:45:37;;;;;;;6.25;2.70;;;;;;;3.47;53.37;100096.44;5066596;28;20542;-37
2022/04/28 01:48:09;;;;;;;8.32;3.22;;;;;;;3.41;53.32;100094.69;5049429;28;20044;-38
2022/04/28 01:56:32;;;;;;;6.00;2.70;;;;;;;3.29;53.69;100095.56;5041892;28;20033;-37
2022/04/28 01:59:34;;;;;;;9.68;3.45;;;;;;;3.25;53.57;100096.41;5031091;28;20111;-38
2022/04/28 02:02:32;;;;;;;8.00;3.50;;;;;;;3.20;53.45;100099.81;5036000;28;20053;-39
2022/04/28 02:05:02;;;;;;;6.13;2.95;;;;;;;3.13;53.71;100091.25;5047978;28;20071;-38
2022/04/28 02:07:29;;;;;;;5.88;2.83;;;;;;;3.08;53.63;100099.81;5049410;28;20037;-38
2022/04/28 02:09:56;;;;;;;8.57;2.90;;;;;;;3.07;53.66;100109.22;5056699;28;20036;-38
2022/04/28 02:12:24;;;;;;;7.15;3.22;;;;;;;3.07;53.51;100106.66;5056977;28;20591;-38
2022/04/28 02:15:09;;;;;;;7.68;2.50;;;;;;;2.95;53.58;100098.91;5056242;28;20047;-38
2022/04/28 02:17:53;;;;;;;4.32;2.03;;;;;;;3.01;53.24;100111.75;5051441;28;20041;-37
2022/04/28 02:20:19;;;;;;;8.63;2.17;;;;;;;3.00;53.12;100112.63;5032217;28;20067;-38
2022/04/28 02:22:45;;;;;;;6.88;2.17;;;;;;;2.97;53.19;100108.34;5046962;28;20045;-37
2022/04/28 02:25:11;;;;;;;4.85;2.60;;;;;;;2.97;53.21;100110.03;5064165;28;20041;-37
2022/04/28 02:27:36;;;;;;;9.13;2.50;;;;;;;2.96;53.37;100109.19;5048544;28;20040;-37
2022/04/28 02:30:04;;;;;;;5.82;2.65;;;;;;;2.96;53.52;100116.91;5051218;28;20427;-38
2022/04/28 02:33:08;;;;;;;8.50;3.28;;;;;;;2.96;53.07;100113.47;5059451;28;20067;-38
2022/04/28 02:35:18;;;;;;;9.45;3.20;;;;;;;2.99;53.23;100109.19;5052342;28;20048;-37
2022/04/28 02:37:45;;;;;;;7.05;2.88;;;;;;;3.05;52.98;100123.75;5047057;28;20051;-37
2022/04/28 02:40:12;;;;;;;5.88;2.55;;;;;;;3.11;52.87;100122.91;5047224;28;20064;-37
2022/04/28 02:42:38;;;;;;;8.50;2.40;;;;;;;3.15;52.45;100122.94;5030653;28;20044;-37
2022/04/28 02:45:05;;;;;;;5.30;1.60;;;;;;;3.24;51.64;100130.69;5066945;28;20048;-38
2022/04/28 02:47:32;;;;;;;3.90;1.83;;;;;;;3.32;50.86;100128.09;5052057;28;20079;-37
2022/04/28 02:49:58;;;;;;;5.45;2.10;;;;;;;3.41;50.34;100128.13;5048671;28;20041;-39
2022/04/28 02:52:24;;;;;;;5.85;1.88;;;;;;;3.47;49.42;100114.41;5050534;28;20495;-39
2022/04/28 02:54:51;;;;;;;5.22;1.83;;;;;;;3.66;48.80;100137.59;5067144;28;20062;-39
2022/04/28 02:57:16;;;;;;;6.57;1.90;;;;;;;3.75;47.86;100131.59;5053126;28;20049;-38
2022/04/28 02:59:44;;;;;;;6.47;1.52;;;;;;;3.83;47.19;100141.00;5065077;28;20048;-37
2022/04/28 03:02:09;;;;;;;4.47;1.60;;;;;;;3.96;46.73;100148.72;5062089;28;20041;-37
2022/04/28 03:04:35;;;;;;;4.60;1.50;;;;;;;4.04;45.85;100145.28;5048138;28;20424;-38
2022/04/28 03:12:35;;;;;;;4.65;1.35;;;;;;;4.25;43.76;100145.25;5054681;28;20108;-39
2022/04/28 03:15:20;;;;;;;6.23;1.23;;;;;;;4.45;43.31;100158.09;5047120;28;20033;-38
2022/04/28 03:17:47;;;;;;;4.22;1.10;;;;;;;4.56;43.02;100163.22;5046887;28;20295;-38
2022/04/28 03:20:13;;;;;;;6.43;1.25;;;;;;;4.60;41.95;100160.66;5049252;28;20056;-39
2022/04/28 03:22:39;;;;;;;4.78;1.25;;;;;;;4.72;41.42;100169.19;5046310;28;20168;-38
2022/04/28 03:25:06;;;;;;;6.20;0.90;;;;;;;4.78;41.13;100170.03;5047912;28;20131;-38
2022/04/28 03:27:32;;;;;;;5.38;0.88;;;;;;;4.83;40.53;100173.44;5051366;28;20067;-38
2022/04/28 03:29:58;;;;;;;2.60;0.90;;;;;;;4.90;39.75;100172.56;5050624;28;20037;-38
2022/04/28 03:32:24;;;;;;;4.07;0.77;;;;;;;5.00;40.00;100174.25;5053593;28;20040;-38
2022/04/28 03:35:11;;;;;;;2.67;1.10;;;;;;;5.12;38.92;100178.50;5051240;28;20484;-38
2022/04/28 03:37:37;;;;;;;4.47;1.20;;;;;;;5.18;39.33;100177.63;5034652;28;20044;-39
2022/04/28 03:40:04;;;;;;;5.15;1.38;;;;;;;5.21;38.49;100186.19;5040248;28;20063;-39
2022/04/28 03:42:33;;;;;;;2.35;1.02;;;;;;;5.28;38.23;100185.31;5068786;28;20044;-38
2022/04/28 03:45:00;;;;;;;2.90;1.00;;;;;;;5.34;38.87;100184.41;5050319;28;20048;-38
2022/04/28 03:47:32;;;;;;;2.72;1.10;;;;;;;5.45;38.58;100187.78;5057938;28;20495;-38
2022/04/28 03:49:58;;;;;;;2.22;1.35;;;;;;;5.50;38.23;100186.88;5050900;28;20044;-38
2022/04/28 03:52:25;;;;;;;7.03;1.63;;;;;;;5.47;38.21;100175.75;5049894;28;20120;-37
2022/04/28 03:54:51;;;;;;;2.88;1.15;;;;;;;5.64;38.36;100194.56;5063803;28;20036;-38
2022/04/28 03:57:17;;;;;;;4.97;1.48;;;;;;;5.74;38.19;100200.50;5064722;28;20135;-38
2022/04/28 03:59:43;;;;;;;6.63;1.38;;;;;;;5.85;38.63;100202.16;5059133;28;20036;-38
2022/04/28 04:02:11;;;;;;;3.63;1.15;;;;;;;5.91;38.42;100207.28;5067454;28;20051;-39
2022/04/28 04:04:38;;;;;;;4.18;1.00;;;;;;;5.92;37.57;100205.56;5034925;28;20143;-39
2022/04/28 04:07:07;;;;;;;3.92;1.20;;;;;;;5.89;37.91;100205.59;5033963;28;20059;-38
2022/04/28 04:09:36;;;;;;;2.80;1.40;;;;;;;5.81;38.10;100208.19;5050392;28;20043;-39
2022/04/28 04:12:08;;;;;;;3.72;1.23;;;;;;;5.66;38.22;100203.13;5083338;28;20093;-37
2022/04/28 04:14:53;;;;;;;2.55;1.65;;;;;;;5.49;37.71;100213.56;5056776;28;20048;-39
2022/04/28 04:17:19;;;;;;;1.70;1.05;;;;;;;5.37;38.14;100216.19;5067648;28;20444;-39
2022/04/28 04:19:47;;;;;;;6.70;1.20;;;;;;;5.30;38.37;100221.38;5051418;28;20045;-39
2022/04/28 04:22:13;;;;;;;2.13;1.10;;;;;;;5.24;38.42;100222.25;5040161;28;20041;-39
2022/04/28 04:24:40;;;;;;;2.92;1.00;;;;;;;5.19;38.53;100226.56;5063976;28;20102;-37
2022/04/28 04:27:08;;;;;;;3.53;1.02;;;;;;;5.14;38.76;100228.31;5051121;28;20068;-39
2022/04/28 04:29:52;;;;;;;5.13;1.15;;;;;;;5.14;38.57;100230.88;5055581;28;20036;-38
2022/04/28 04:32:42;;;;;;;;;;;;;;;5.09;38.23;100233.47;5047137;28;20124;-39
2022/04/28 04:35:28;;;;;;;2.45;1.00;;;;;;;5.06;38.37;100240.38;5049386;28;19916;-42
2022/04/28 04:37:58;;;;;;;2.05;1.20;;;;;;;5.05;38.49;100249.81;5048695;28;20040;-39
2022/04/28 04:40:27;;;;;;;2.22;0.90;;;;;;;5.03;38.16;100237.78;5048443;28;20047;-40
2022/04/28 04:42:54;;;;;;;3.83;1.17;;;;;;;5.05;38.01;100254.13;5063702;28;20043;-38
2022/04/28 04:45:20;;;;;;;3.58;1.05;;;;;;;5.05;38.07;100248.97;5063103;28;20092;-40
2022/04/28 04:48:12;;;;;;;1.17;0.90;;;;;;;4.92;38.25;100224.94;5051839;28;20048;-40
2022/04/28 04:50:59;;;;;;;5.13;1.00;;;;;;;4.98;38.38;100248.13;5046581;28;20029;-40
2022/04/28 04:53:31;;;;;;;2.65;1.25;;;;;;;5.00;38.89;100253.28;5048414;28;20647;-39
2022/04/28 04:55:58;;;;;;;2.80;0.98;;;;;;;5.00;38.86;100261.88;5049266;28;20080;-39
2022/04/28 04:58:26;;;;;;;7.03;1.50;;;;;;;5.00;39.24;100258.44;5048801;28;20044;-38
2022/04/28 05:00:56;;;;;;;4.75;1.60;;;;;;;5.04;39.06;100258.41;5035520;28;20062;-39
2022/04/28 05:03:22;;;;;;;2.42;1.30;;;;;;;5.09;39.53;100261.81;5058937;28;20117;-39
2022/04/28 05:05:54;;;;;;;5.70;1.20;;;;;;;5.17;39.62;100263.53;5038645;28;20106;-40
2022/04/28 05:08:24;;;;;;;2.67;1.25;;;;;;;5.17;39.10;100268.69;5048616;28;20132;-39
2022/04/28 05:10:57;;;;;;;5.55;1.20;;;;;;;5.18;38.65;100263.53;5058111;28;20094;-38
2022/04/28 05:13:24;;;;;;;2.70;1.15;;;;;;;5.08;39.20;100254.94;5064461;28;20037;-40
2022/04/28 05:15:53;;;;;;;5.78;1.00;;;;;;;5.18;39.42;100268.69;5050140;28;20044;-41
2022/04/28 05:18:30;;;;;;;4.75;2.67;;;;;;;5.23;39.28;100274.69;5037431;28;20535;-39
2022/04/28 05:21:14;;;;;;;3.70;1.45;;;;;;;5.29;38.86;100278.94;5048010;28;20090;-38
2022/04/28 05:24:18;;;;;;;7.90;2.33;;;;;;;5.39;38.96;100273.75;5027252;28;20037;-39
2022/04/28 05:26:44;;;;;;;5.93;1.40;;;;;;;5.45;39.28;100278.03;5027507;28;20083;-40
2022/04/28 05:29:30;;;;;;;3.70;1.45;;;;;;;5.34;39.58;100246.28;5039534;28;20052;-41
2022/04/28 05:32:34;;;;;;;5.63;1.52;;;;;;;5.53;39.05;100278.88;5033852;28;20072;-39
2022/04/28 05:35:19;;;;;;;8.32;2.38;;;;;;;5.52;39.07;100278.00;5043537;28;20087;-41
2022/04/28 05:37:45;;;;;;;3.40;1.40;;;;;;;5.47;38.86;100264.28;5047631;28;20061;-39
2022/04/28 05:40:12;;;;;;;1.92;1.00;;;;;;;5.54;38.37;100275.44;5052455;28;20051;-38
2022/04/28 05:45:43;;;;;;;3.65;1.45;;;;;;;5.71;38.61;100275.31;5048219;28;20431;-39
2022/04/28 05:48:17;;;;;;;2.70;1.30;;;;;;;5.78;39.30;100270.13;5055916;28;20068;-39
2022/04/28 05:50:47;;;;;;;3.25;1.40;;;;;;;5.86;38.76;100272.69;5057019;28;20504;-38
2022/04/28 05:53:16;;;;;;;3.90;1.45;;;;;;;5.90;39.30;100275.25;5088947;28;20094;-39
2022/04/28 05:55:46;;;;;;;2.47;1.40;;;;;;;6.00;39.59;100268.31;5047178;28;20182;-39
2022/04/28 05:58:12;;;;;;;6.22;1.55;;;;;;;6.08;38.97;100257.91;5046811;28;20028;-38
2022/04/28 06:00:46;;;;;;;5.28;1.75;;;;;;;6.28;39.05;100271.56;5045461;28;20045;-39
2022/04/28 06:03:13;;;;;;;3.70;1.23;;;;;;;6.33;38.15;100269.81;5047226;28;20045;-39
2022/04/28 06:05:48;;;;;;;4.40;1.58;;;;;;;6.42;38.06;100267.16;5046895;28;20052;-38
2022/04/28 06:08:14;;;;;;;6.32;2.00;;;;;;;6.37;37.83;100253.41;5046995;28;20083;-39
2022/04/28 06:10:40;;;;;;;2.35;1.38;;;;;;;6.57;37.79;100269.59;5048346;28;20555;-39
2022/04/28 06:13:08;;;;;;;4.70;1.75;;;;;;;6.74;38.16;100249.63;5047300;28;20293;-39
2022/04/28 06:15:52;;;;;;;4.90;1.77;;;;;;;7.12;38.06;100258.69;5047876;28;20041;-40
2022/04/28 06:18:35;;;;;;;4.30;1.40;;;;;;;7.93;36.78;100266.28;5029882;28;20041;-40
2022/04/28 06:21:21;;;;;;;6.95;1.70;;;;;;;9.07;34.38;100267.00;5045313;28;20032;-39
2022/04/28 06:23:47;;;;;;;6.25;2.22;;;;;;;10.37;32.34;100273.72;5047216;28;20457;-40
2022/04/28 06:26:14;;;;;;;3.67;1.38;;;;;;;11.30;30.97;100254.81;5046801;28;20041;-40
2022/04/28 06:28:40;;;;;;;9.40;1.80;;;;;;;12.45;30.17;100273.06;5046635;28;20579;-41
2022/04/28 06:31:06;;;;;;;21.58;3.08;;;;;;;13.47;29.06;100266.00;5045901;28;20040;-40
2022/04/28 06:33:41;;;;;;;8.02;1.50;;;;;;;14.10;27.78;100279.28;5047629;28;20141;-40
2022/04/28 06:36:16;;;;;;;4.88;1.30;;;;;;;15.26;24.95;100271.81;5047092;28;20037;-40
2022/04/28 06:38:44;;;;;;;3.92;1.40;;;;;;;16.36;23.10;100267.56;5030808;28;20072;-42
2022/04/28 06:41:11;;;;;;;5.57;1.63;;;;;;;17.26;22.05;100270.91;5046411;28;20033;-40
2022/04/28 06:43:42;;;;;;;6.75;1.30;;;;;;;18.29;20.41;100267.03;5030311;28;20040;-38
2022/04/28 06:46:28;;;;;;;5.78;1.42;;;;;;;19.35;19.89;100280.06;5047566;28;20082;-39
2022/04/28 06:49:14;;;;;;;13.25;1.85;;;;;;;20.54;19.15;100281.28;5046197;28;20049;-40
2022/04/28 06:51:58;;;;;;;3.90;1.58;;;;;;;21.16;17.91;100270.97;5045616;28;20166;-40
2022/04/28 06:54:40;;;;;;;7.45;1.55;;;;;;;21.93;17.18;100284.00;5051008;28;20047;-40
2022/04/28 06:57:06;;;;;;;11.93;1.73;;;;;;;22.61;16.12;100272.00;5048396;28;20516;-37
2022/04/28 06:59:37;;;;;;;6.78;1.70;;;;;;;22.85;16.10;100288.75;5032092;28;20431;-40
2022/04/28 07:02:05;;;;;;;9.10;1.67;;;;;;;23.64;15.07;100278.16;5053017;28;20040;-40
2022/04/28 07:04:33;;;;;;;3.70;1.52;;;;;;;24.15;15.26;100282.06;5063166;28;20056;-39
2022/04/28 07:06:59;;;;;;;7.03;1.92;;;;;;;24.92;14.69;100282.78;5046753;28;20432;-40
2022/04/28 07:09:25;;;;;;;6.75;1.50;;;;;;;24.04;15.33;100278.47;5056364;28;20037;-40
2022/04/28 07:11:51;;;;;;;10.80;1.55;;;;;;;21.51;16.91;100274.66;5052864;28;20041;-40
2022/04/28 07:14:55;;;;;;;2.85;1.40;;;;;;;22.86;15.62;100269.22;5033745;28;20041;-38
2022/04/28 07:17:59;;;;;;;2.65;1.55;;;;;;;24.61;14.16;100272.03;5048234;28;20064;-39
2022/04/28 07:20:25;;;;;;;5.72;1.88;;;;;;;24.91;13.88;100267.81;5039785;28;20521;-39
2022/04/28 07:22:50;;;;;;;2.22;1.55;;;;;;;25.09;13.54;100271.56;5030120;28;20041;-38
2022/04/28 07:25:18;;;;;;;4.95;1.60;;;;;;;25.68;13.19;100274.44;5032256;28;20528;-38
2022/04/28 07:27:45;;;;;;;4.50;2.22;;;;;;;26.46;12.85;100277.16;5046949;28;20405;-38
2022/04/28 07:30:22;;;;;;;3.97;1.80;;;;;;;26.25;13.21;100272.91;5046448;28;20065;-38
2022/04/28 07:32:53;;;;;;;3.40;1.80;;;;;;;26.92;12.41;100288.97;5055417;28;20117;-39
2022/04/28 07:35:21;;;;;;;3.38;2.10;;;;;;;27.77;11.89;100284.38;5046661;28;20185;-39
2022/04/28 07:38:07;;;;;;;5.20;1.75;;;;;;;28.65;11.79;100296.22;5047237;28;20864;-40
2022/04/28 07:40:33;;;;;;;12.95;2.28;;;;;;;29.17;11.07;100281.09;5053540;28;20085;-39
2022/04/28 07:43:03;;;;;;;8.40;1.92;;;;;;;29.84;11.05;100295.56;5031553;28;20523;-39
2022/04/28 07:45:29;;;;;;;5.63;1.48;;;;;;;29.75;10.81;100300.06;5051740;28;20075;-39
2022/04/28 07:47:56;;;;;;;5.30;1.50;;;;;;;26.98;12.13;100289.25;5039938;28;20036;-39
2022/04/28 07:50:24;;;;;;;5.70;1.63;;;;;;;24.11;13.30;100291.25;5039202;28;20059;-39
2022/04/28 07:52:53;;;;;;;1.35;1.23;;;;;;;21.77;14.47;100270.16;5045953;28;20047;-38
2022/04/28 07:55:20;;;;;;;3.17;1.70;;;;;;;20.40;15.49;100281.38;5046586;28;20781;-37
2022/04/28 07:57:49;;;;;;;2.03;1.70;;;;;;;20.93;15.32;100269.03;5046264;28;20041;-39
2022/04/28 08:00:24;;;;;;;3.03;1.90;;;;;;;23.69;13.99;100280.44;5032209;28;20091;-38
2022/04/28 08:02:54;;;;;;;2.95;1.60;;;;;;;25.57;12.95;100278.03;5034497;28;20045;-38
2022/04/28 08:05:26;;;;;;;2.28;1.40;;;;;;;26.70;11.81;100258.03;5063122;28;20063;-39
2022/04/28 08:07:52;;;;;;;2.83;1.75;;;;;;;27.49;11.82;100269.28;5054847;28;20040;-38
2022/04/28 08:10:20;;;;;;;4.47;1.75;;;;;;;28.01;11.08;100261.59;5045903;28;20044;-39
2022/04/28 08:12:46;;;;;;;7.97;2.05;;;;;;;28.81;11.10;100272.31;5047599;28;20048;-39
2022/04/28 08:15:50;;;;;;;3.92;1.70;;;;;;;29.79;10.59;100271.91;5026201;28;20533;-40
2022/04/28 08:18:16;;;;;;;2.33;1.70;;;;;;;30.20;10.29;100274.78;4996724;28;20037;-41
2022/04/28 08:20:42;;;;;;;2.17;1.67;;;;;;;29.66;10.10;100276.91;5031693;28;20146;-40
2022/04/28 08:23:10;;;;;;;4.03;1.90;;;;;;;29.72;10.62;100280.78;5046606;28;20039;-39
2022/04/28 08:25:36;;;;;;;4.65;2.10;;;;;;;28.01;11.13;100262.44;5049558;28;20120;-40
2022/04/28 08:28:01;;;;;;;3.13;1.40;;;;;;;25.41;12.35;100266.16;5049989;28;20045;-39
2022/04/28 08:30:27;;;;;;;5.28;1.80;;;;;;;23.27;13.41;100268.69;5048845;28;20075;-39
2022/04/28 08:32:54;;;;;;;3.65;1.33;;;;;;;22.03;14.24;100256.91;5031996;28;20144;-39
2022/04/28 08:35:21;;;;;;;6.40;1.77;;;;;;;22.18;14.35;100256.63;5054370;28;20140;-40
2022/04/28 08:37:47;;;;;;;1.63;1.00;;;;;;;21.46;14.23;100263.53;5041299;28;20127;-41
2022/04/28 08:40:12;;;;;;;5.00;1.10;;;;;;;20.52;14.58;100255.91;5070242;28;20514;-39
2022/04/28 08:42:41;;;;;;;8.85;1.63;;;;;;;19.91;15.38;100256.38;5053347;28;20037;-40
2022/04/28 08:45:28;;;;;;;5.15;2.00;;;;;;;19.85;15.41;100261.09;5049456;28;20045;-40
2022/04/28 08:48:29;;;;;;;6.45;1.80;;;;;;;23.00;14.26;100261.06;5061175;28;20041;-40
2022/04/28 08:51:27;;;;;;;2.75;1.50;;;;;;;25.68;12.67;100253.97;5050161;28;20064;-39
2022/04/28 08:54:00;;;;;;;4.88;1.73;;;;;;;26.77;11.14;100245.84;5072453;28;20063;-40
2022/04/28 08:56:26;;;;;;;3.42;1.00;;;;;;;27.24;10.52;100254.75;5049615;28;20045;-41
2022/04/28 08:59:15;;;;;;;3.33;1.65;;;;;;;27.56;10.56;100259.72;5046110;28;20513;-39
2022/04/28 09:01:42;;;;;;;3.33;1.50;;;;;;;27.88;11.17;100258.44;5079734;28;20053;-38
2022/04/28 09:04:27;;;;;;;3.15;1.65;;;;;;;27.67;11.09;100258.69;5046879;28;20040;-40
2022/04/28 09:07:37;;;;;;;3.60;1.52;;;;;;;26.05;11.92;100258.69;5044870;28;20068;-41
2022/04/28 09:10:29;;;;;;;2.53;1.20;;;;;;;23.88;13.04;100254.09;5044230;28;20206;-39
2022/04/28 09:16:10;;;;;;;5.80;2.20;;;;;;;20.80;14.65;100261.06;5043370;28;20041;-39
2022/04/28 09:18:36;;;;;;;4.68;1.85;;;;;;;19.88;15.29;100260.94;5046486;28;20130;-39
2022/04/28 09:21:02;;;;;;;4.70;1.52;;;;;;;19.27;15.80;100257.72;5053877;28;20127;-41
2022/04/28 09:23:30;;;;;;;4.55;1.55;;;;;;;20.17;15.26;100253.75;5063831;28;20048;-40
2022/04/28 09:25:57;;;;;;;2.92;1.40;;;;;;;19.82;15.23;100234.91;5033898;28;20059;-39
2022/04/28 09:28:23;;;;;;;10.25;2.42;;;;;;;19.66;15.54;100249.19;5034318;28;20106;-40
2022/04/28 09:30:51;;;;;;;4.78;1.30;;;;;;;19.74;15.69;100255.66;5031928;28;20040;-40
2022/04/28 09:33:41;;;;;;;2.53;1.63;;;;;;;19.77;15.53;100241.44;5045890;28;20037;-39
2022/04/28 09:36:26;;;;;;;4.25;1.58;;;;;;;20.33;15.32;100244.88;5048414;28;20037;-39
2022/04/28 09:42:29;;;;;;;6.03;2.40;;;;;;;22.79;14.44;100252.09;5028579;28;20156;-39
2022/04/28 09:44:50;;;;;;;2.00;1.65;;;;;;;24.21;12.78;100263.00;5031282;28;20044;-39
2022/04/28 09:47:21;;;;;;;10.00;1.90;;;;;;;24.17;13.01;100257.09;5028573;28;20044;-41
2022/04/28 09:50:24;;;;;;;3.88;1.70;;;;;;;24.59;12.17;100257.19;5046431;28;20577;-39
2022/04/28 09:53:20;;;;;;;3.10;1.77;;;;;;;25.64;11.65;100265.03;5040548;28;20608;-39
2022/04/28 09:56:05;;;;;;;3.50;1.60;;;;;;;27.03;11.27;100254.09;5041935;28;20040;-39
2022/04/28 09:59:01;;;;;;;2.35;1.70;;;;;;;27.68;10.68;100237.19;5028744;28;20436;-40
2022/04/28 10:01:29;;;;;;;1.35;1.25;;;;;;;28.45;10.32;100263.44;5077828;28;20455;-39
2022/04/28 10:03:57;;;;;;;2.00;1.50;;;;;;;28.65;10.10;100259.59;5029409;28;20108;-39
2022/04/28 10:06:36;;;;;;;1.40;1.17;;;;;;;27.89;10.52;100260.13;5071601;28;20048;-39
2022/04/28 10:09:17;;;;;;;2.03;1.30;;;;;;;25.78;11.43;100259.31;5036698;28;20045;-40
2022/04/28 10:11:48;;;;;;;2.60;1.58;;;;;;;24.08;12.78;100252.50;5063019;28;20512;-40
2022/04/28 10:14:14;;;;;;;2.65;1.30;;;;;;;23.62;12.93;100260.66;5053631;28;20265;-39
2022/04/28 10:16:46;;;;;;;2.60;1.40;;;;;;;23.27;13.00;100257.25;5044804;28;20114;-39
2022/04/28 10:19:19;;;;;;;3.63;2.00;;;;;;;24.19;12.26;100262.28;5025436;28;20043;-40
2022/04/28 10:21:57;;;;;;;3.65;1.80;;;;;;;26.09;11.47;100260.09;5042112;28;20037;-39
2022/04/28 10:33:19;;;;;;;2.53;1.80;;;;;;;27.21;10.72;100257.72;5029831;28;20040;-39
2022/04/28 10:35:54;;;;;;;2.63;1.55;;;;;;;26.28;11.42;100264.63;5032079;28;20067;-39
2022/04/28 10:38:34;;;;;;;1.88;1.63;;;;;;;25.29;11.64;100257.41;5027910;28;20072;-41
2022/04/28 10:41:11;;;;;;;2.45;1.50;;;;;;;23.31;12.44;100248.91;5027207;28;20493;-40
2022/04/28 10:43:40;;;;;;;3.25;1.83;;;;;;;22.96;12.75;100261.41;5031258;28;20053;-38
2022/04/28 10:46:08;;;;;;;3.22;2.28;;;;;;;24.65;12.03;100248.72;5027812;28;20045;-43
2022/04/28 10:48:35;;;;;;;;;;;;;;;23.56;12.26;100250.50;5032688;28;20045;-39
2022/04/28 10:51:21;;;;;;;6.57;1.70;;;;;;;24.75;12.05;100254.94;5040795;28;19999;-39
2022/04/28 10:54:03;;;;;;;3.30;2.03;;;;;;;26.40;11.85;100255.53;5032744;28;20064;-40
2022/04/28 10:56:41;;;;;;;11.05;2.05;;;;;;;27.70;11.39;100239.69;5030168;28;20048;-40
2022/04/28 10:59:37;;;;;;;5.13;1.90;;;;;;;27.27;11.54;100254.44;5043797;28;20103;-38
2022/04/28 11:02:13;;;;;;;3.40;2.15;;;;;;;26.79;11.06;100251.03;5037379;28;20123;-43
2022/04/28 11:04:41;;;;;;;2.78;2.05;;;;;;;26.76;11.56;100246.81;5035664;28;20048;-41
2022/04/28 11:07:16;;;;;;;3.08;1.67;;;;;;;25.58;12.00;100231.78;5072755;28;20176;-40
2022/04/28 11:09:55;;;;;;;2.42;1.70;;;;;;;25.72;12.39;100241.22;5019237;28;20052;-39
2022/04/28 11:12:22;;;;;;;2.97;1.92;;;;;;;24.42;12.08;100234.66;5038258;28;20460;-38
2022/04/28 11:14:59;;;;;;;2.72;1.60;;;;;;;22.07;13.33;100234.53;5038831;28;20056;-39
2022/04/28 11:17:28;;;;;;;3.60;1.83;;;;;;;20.71;14.30;100227.34;5069805;28;20067;-40
2022/04/28 11:19:54;;;;;;;3.42;1.63;;;;;;;19.94;14.66;100222.72;5071898;28;20048;-39
2022/04/28 11:22:21;;;;;;;2.78;1.55;;;;;;;19.51;15.11;100213.22;5040219;28;20033;-38
2022/04/28 11:24:48;;;;;;;9.65;2.33;;;;;;;19.95;15.18;100223.56;5040843;28;20052;-40
2022/04/28 11:27:30;;;;;;;3.65;1.80;;;;;;;20.86;15.03;100225.44;5037540;28;20037;-40
2022/04/28 11:30:24;;;;;;;4.07;1.45;;;;;;;21.25;14.78;100213.97;5065881;28;20052;-40
2022/04/28 11:32:58;;;;;;;3.08;1.30;;;;;;;20.56;14.82;100218.66;5049407;28;20473;-40
2022/04/28 11:35:34;;;;;;;5.57;1.85;;;;;;;20.34;14.91;100210.44;5032098;28;20489;-39
2022/04/28 11:38:00;;;;;;;9.32;2.60;;;;;;;20.92;14.58;100201.22;5039796;28;20428;-41
2022/04/28 11:40:26;;;;;;;3.72;1.48;;;;;;;21.14;14.65;100214.69;5036536;28;20055;-40
2022/04/28 11:42:57;;;;;;;2.75;1.63;;;;;;;20.84;14.49;100191.16;5032877;28;20041;-40
2022/04/28 11:45:23;;;;;;;4.93;1.80;;;;;;;20.17;14.99;100190.41;5041482;28;20077;-40
2022/04/28 11:47:49;;;;;;;4.53;1.60;;;;;;;19.73;15.60;100209.09;5077398;28;20060;-40
2022/04/28 11:50:20;;;;;;;7.40;1.58;;;;;;;19.02;15.94;100190.69;5044122;28;20053;-40
2022/04/28 11:53:00;;;;;;;2.75;1.70;;;;;;;19.74;15.45;100207.31;5075071;28;20037;-41
2022/04/28 11:55:29;;;;;;;3.03;1.58;;;;;;;19.30;15.84;100195.13;5050640;28;20041;-40
2022/04/28 11:57:55;;;;;;;8.77;2.60;;;;;;;18.56;16.47;100191.75;5021193;28;20040;-41
2022/04/28 12:00:24;;;;;;;3.58;1.70;;;;;;;17.85;17.18;100194.06;5072379;28;20508;-39
2022/04/28 12:02:52;;;;;;;2.88;1.90;;;;;;;17.36;17.86;100186.25;5029365;28;20044;-39
2022/04/28 12:05:25;;;;;;;3.13;1.70;;;;;;;16.92;17.52;100196.47;5054189;28;20064;-41
2022/04/28 12:07:52;;;;;;;4.80;3.13;;;;;;;16.58;18.00;100190.38;5041334;28;20038;-40
2022/04/28 12:16:18;;;;;;;4.38;1.75;;;;;;;21.78;15.32;100181.00;5046391;28;20037;-39
2022/04/28 12:21:35;;;;;;;3.78;1.67;;;;;;;22.86;14.47;100163.16;5015700;28;19920;-40
2022/04/28 12:24:08;;;;;;;13.45;2.47;;;;;;;21.52;15.27;100178.44;5028454;28;20046;-41
2022/04/28 12:26:36;;;;;;;12.13;2.30;;;;;;;20.41;16.04;100172.09;5031479;28;20044;-40
2022/04/28 12:29:09;;;;;;;6.65;1.90;;;;;;;20.16;15.72;100151.72;5047855;28;20608;-40
2022/04/28 12:31:35;;;;;;;2.20;1.60;;;;;;;19.51;16.15;100166.59;5038805;28;20124;-39
2022/04/28 12:34:22;;;;;;;5.93;1.60;;;;;;;18.62;16.26;100157.16;5047365;28;20990;-41